Time;durP1;ratioP1;P1;durP2;ratioP2;P2;SDS_P1;SDS_P2;PMS_P1;PMS_P2;Temp;Humidity;BMP_temperature;BMP_pressure;BME280_temperature;BME280_humidity;BME280_pressure;Samples;Min_cycle;Max_cycle;Signal;HPM_P1;HPM_P2
2022/01/13 05:46:10;;;;;;;65.32;27.10;;;;;;;;;;4840132;23;20413;-81
2022/01/13 05:49:19;;;;;;;60.15;26.45;;;;;;;;;;4796334;29;20050;-82
2022/01/13 05:51:57;;;;;;;58.63;28.55;;;;;;;;;;4804231;29;20066;-81
2022/01/13 05:58:33;;;;;;;56.08;25.38;;;;;;;;;;4789344;29;20137;-82
2022/01/13 06:01:02;;;;;;;57.15;24.80;;;;;;;;;;4707738;29;20352;-81
2022/01/13 06:07:32;;;;;;;60.72;25.17;;;;;;;;;;4647913;30;20041;-81
2022/01/13 06:10:19;;;;;;;61.72;26.83;;;;;;;;;;4656906;30;20127;-82
2022/01/13 06:13:11;;;;;;;60.25;26.75;;;;;;;;;;4642182;30;20057;-81
2022/01/13 06:15:37;;;;;;;58.90;26.55;;;;;;;;;;4635157;30;20092;-82
2022/01/13 06:18:43;;;;;;;59.28;24.58;;;;;;;;;;4683469;30;20135;-82
2022/01/13 06:21:08;;;;;;;59.67;26.38;;;;;;;;;;4774278;29;20055;-82
2022/01/13 06:23:40;;;;;;;60.13;27.38;;;;;;;;;;4769286;29;20047;-82
2022/01/13 06:26:11;;;;;;;52.83;25.95;;;;;;;;;;4816052;29;20075;-82
2022/01/13 06:28:37;;;;;;;60.00;26.38;;;;;;;;;;4794773;29;20070;-82
2022/01/13 06:31:03;;;;;;;59.92;25.83;;;;;;;;;;4808847;29;20038;-81
2022/01/13 06:33:29;;;;;;;61.40;27.42;;;;;;;;;;4793933;29;20054;-81
2022/01/13 06:35:58;;;;;;;65.45;28.13;;;;;;;;;;4811166;29;20484;-81
2022/01/13 06:38:24;;;;;;;58.20;27.45;;;;;;;;;;4797005;29;20469;-81
2022/01/13 06:40:54;;;;;;;62.78;27.38;;;;;;;;;;4785551;29;20547;-81
2022/01/13 06:43:25;;;;;;;63.28;28.33;;;;;;;;;;4774743;29;20042;-81
2022/01/13 06:45:50;;;;;;;67.03;28.45;;;;;;;;;;4770954;29;20055;-81
2022/01/13 06:48:16;;;;;;;71.55;29.70;;;;;;;;;;4793287;29;20088;-81
2022/01/13 06:50:45;;;;;;;74.63;28.58;;;;;;;;;;4795881;29;20129;-81
2022/01/13 06:53:11;;;;;;;62.22;28.67;;;;;;;;;;4817558;29;20404;-82
2022/01/13 06:55:40;;;;;;;68.82;30.38;;;;;;;;;;4778848;29;20377;-81
2022/01/13 06:58:11;;;;;;;68.05;28.83;;;;;;;;;;4764193;29;20070;-82
2022/01/13 07:00:46;;;;;;;66.78;28.08;;;;;;;;;;4772168;29;20058;-82
2022/01/13 07:03:11;;;;;;;68.22;28.63;;;;;;;;;;4796285;29;20066;-82
2022/01/13 07:05:37;;;;;;;64.20;29.00;;;;;;;;;;4803034;29;20099;-81
2022/01/13 07:08:23;;;;;;;66.20;28.95;;;;;;;;;;4776789;29;20076;-82
2022/01/13 07:12:05;;;;;;;69.03;28.67;;;;;;;;;;4752286;29;20676;-82
2022/01/13 07:14:36;;;;;;;60.72;28.13;;;;;;;;;;4760813;29;20055;-82
2022/01/13 07:17:15;;;;;;;64.70;27.83;;;;;;;;;;4772713;29;20039;-82
2022/01/13 07:20:46;;;;;;;71.00;30.50;;;;;;;;;;4752718;29;20417;-82
2022/01/13 07:23:28;;;;;;;65.75;27.55;;;;;;;;;;4758927;30;20043;-82
2022/01/13 07:25:54;;;;;;;66.95;27.50;;;;;;;;;;4774062;29;20154;-82
2022/01/13 07:28:20;;;;;;;67.03;29.08;;;;;;;;;;4778087;29;20047;-83
2022/01/13 07:30:46;;;;;;;63.40;27.10;;;;;;;;;;4792647;29;20055;-83
2022/01/13 07:33:14;;;;;;;64.40;29.80;;;;;;;;;;4784268;29;20134;-83
2022/01/13 07:35:40;;;;;;;65.95;28.85;;;;;;;;;;4801826;29;20055;-83
2022/01/13 07:38:05;;;;;;;68.63;28.17;;;;;;;;;;4805042;29;20083;-82
2022/01/13 07:40:31;;;;;;;74.55;30.25;;;;;;;;;;4787404;29;20103;-82
2022/01/13 07:42:57;;;;;;;59.35;27.92;;;;;;;;;;4814328;29;20072;-83
2022/01/13 07:45:23;;;;;;;65.18;28.25;;;;;;;;;;4776415;29;20114;-79
2022/01/13 07:47:48;;;;;;;63.15;26.77;;;;;;;;;;4801813;29;20055;-83
2022/01/13 07:50:15;;;;;;;65.00;27.70;;;;;;;;;;4787001;29;20066;-84
2022/01/13 07:52:42;;;;;;;62.83;27.60;;;;;;;;;;4789275;29;20047;-83
2022/01/13 07:55:08;;;;;;;72.93;29.20;;;;;;;;;;4797521;29;20047;-82
2022/01/13 07:57:34;;;;;;;61.58;26.98;;;;;;;;;;4801026;29;20116;-83
2022/01/13 08:00:53;;;;;;;68.35;28.77;;;;;;;;;;4767136;29;20058;-83
2022/01/13 08:03:52;;;;;;;65.40;26.45;;;;;;;;;;4789388;29;20634;-84
2022/01/13 08:43:36;;;;;;;55.30;24.35;;;;;;;;;;4908953;23;20062;-84
2022/01/13 08:46:42;;;;;;;57.70;24.80;;;;;;;;;;4719846;30;20130;-84
2022/01/13 08:52:23;;;;;;;55.58;22.88;;;;;;;;;;4742790;29;20052;-84
2022/01/13 08:55:05;;;;;;;54.40;23.05;;;;;;;;;;4755140;29;20245;-84
2022/01/13 08:57:58;;;;;;;52.30;23.10;;;;;;;;;;4789632;29;20520;-84
2022/01/13 09:17:22;;;;;;;52.50;21.38;;;;;;;;;;4625060;30;19928;-83
2022/01/13 09:20:28;;;;;;;55.97;22.67;;;;;;;;;;4772791;29;20051;-85
2022/01/13 09:27:25;;;;;;;44.00;19.83;;;;;;;;;;4757357;29;20058;-84
2022/01/13 09:30:46;;;;;;;52.63;22.02;;;;;;;;;;4769107;29;20054;-84
2022/01/13 09:34:15;;;;;;;54.35;21.77;;;;;;;;;;4766152;29;20055;-83
2022/01/13 09:36:57;;;;;;;51.55;21.20;;;;;;;;;;4790166;29;20131;-83
2022/01/13 09:39:31;;;;;;;48.30;20.88;;;;;;;;;;4771246;29;20168;-84
2022/01/13 09:42:04;;;;;;;50.20;20.27;;;;;;;;;;4761037;29;20585;-81
2022/01/13 09:45:04;;;;;;;;;;;;;;;;;;;;;
2022/01/13 09:48:06;;;;;;;44.80;20.33;;;;;;;;;;4744203;29;20500;-83
2022/01/13 09:50:32;;;;;;;49.97;20.10;;;;;;;;;;4798172;29;20047;-83
2022/01/13 09:53:42;;;;;;;45.05;20.27;;;;;;;;;;4750421;29;20047;-84
2022/01/13 09:57:01;;;;;;;47.65;19.52;;;;;;;;;;4707645;30;20039;-84
2022/01/13 09:59:46;;;;;;;47.58;20.63;;;;;;;;;;4732695;29;20067;-82
2022/01/13 10:02:29;;;;;;;51.97;21.73;;;;;;;;;;4753722;29;20042;-83
2022/01/13 10:05:33;;;;;;;51.67;20.73;;;;;;;;;;4785058;29;20049;-83
2022/01/13 10:12:37;;;;;;;;;;;;;;;;;;;;;
2022/01/13 16:58:24;;;;;;;24.38;13.40;;;;;;;;;;4694015;30;20501;-81
2022/01/13 17:11:34;;;;;;;29.10;14.93;;;;;;;;;;4706092;30;20064;-81
2022/01/13 18:06:42;;;;;;;27.92;12.65;;;;;;;;;;4696587;30;20063;-79
2022/01/13 18:09:11;;;;;;;26.83;14.10;;;;;;;;;;4750109;29;20079;-79
2022/01/13 18:12:35;;;;;;;;;;;;;;;;;;;;;
2022/01/13 18:35:59;;;;;;;;;;;;;;;;;;;;;
2022/01/13 19:11:40;;;;;;;29.48;15.20;;;;;;;;;;4748605;30;20110;-81
2022/01/13 19:14:12;;;;;;;28.35;13.88;;;;;;;;;;4736876;30;20055;-80
2022/01/13 19:24:01;;;;;;;30.35;15.02;;;;;;;;;;4733270;30;20051;-79
2022/01/13 19:27:27;;;;;;;;;;;;;;;;;;;;;
2022/01/13 19:30:58;;;;;;;;;;;;;;;;;;;;;
2022/01/13 19:54:09;;;;;;;28.50;15.93;;;;;;;;;;4668578;30;20057;-79
2022/01/13 19:56:39;;;;;;;31.08;17.02;;;;;;;;;;4688769;30;20147;-79
2022/01/13 19:59:05;;;;;;;31.65;16.50;;;;;;;;;;4738101;30;20044;-79
2022/01/13 20:01:34;;;;;;;29.45;15.30;;;;;;;;;;4750346;29;20051;-78
2022/01/13 20:04:00;;;;;;;29.63;17.45;;;;;;;;;;4759735;29;20044;-79
